sensor_id;sensor_type;location;lat;lon;timestamp;P1;durP1;ratioP1;P2;durP2;ratioP2
21569;SDS011;57598;50.888;4.746;2024-01-30T00:00:15;67.25;;;61.60;;
21569;SDS011;57598;50.888;4.746;2024-01-30T00:02:43;64.03;;;58.58;;
21569;SDS011;57598;50.888;4.746;2024-01-30T00:05:11;67.40;;;61.60;;
21569;SDS011;57598;50.888;4.746;2024-01-30T00:07:38;66.10;;;60.50;;
21569;SDS011;57598;50.888;4.746;2024-01-30T00:10:05;65.57;;;60.03;;
21569;SDS011;57598;50.888;4.746;2024-01-30T00:12:33;68.43;;;62.15;;
21569;SDS011;57598;50.888;4.746;2024-01-30T00:15:02;65.85;;;60.25;;
21569;SDS011;57598;50.888;4.746;2024-01-30T00:17:30;66.03;;;60.33;;
21569;SDS011;57598;50.888;4.746;2024-01-30T00:19:57;68.22;;;62.42;;
21569;SDS011;57598;50.888;4.746;2024-01-30T00:22:24;67.72;;;62.13;;
21569;SDS011;57598;50.888;4.746;2024-01-30T00:24:52;71.03;;;65.18;;
21569;SDS011;57598;50.888;4.746;2024-01-30T00:27:19;70.00;;;64.00;;
21569;SDS011;57598;50.888;4.746;2024-01-30T00:29:46;67.00;;;61.35;;
21569;SDS011;57598;50.888;4.746;2024-01-30T00:32:15;67.78;;;62.08;;
21569;SDS011;57598;50.888;4.746;2024-01-30T00:34:44;66.97;;;61.22;;
21569;SDS011;57598;50.888;4.746;2024-01-30T00:37:11;67.88;;;62.08;;
21569;SDS011;57598;50.888;4.746;2024-01-30T00:39:39;66.80;;;61.10;;
21569;SDS011;57598;50.888;4.746;2024-01-30T00:42:06;66.32;;;60.53;;
21569;SDS011;57598;50.888;4.746;2024-01-30T00:44:34;68.55;;;62.65;;
21569;SDS011;57598;50.888;4.746;2024-01-30T00:47:03;66.00;;;60.30;;
21569;SDS011;57598;50.888;4.746;2024-01-30T00:49:32;65.90;;;60.20;;
21569;SDS011;57598;50.888;4.746;2024-01-30T00:52:00;64.20;;;58.47;;
21569;SDS011;57598;50.888;4.746;2024-01-30T00:54:27;66.05;;;60.35;;
21569;SDS011;57598;50.888;4.746;2024-01-30T00:56:55;68.00;;;62.20;;
21569;SDS011;57598;50.888;4.746;2024-01-30T00:59:22;65.07;;;59.47;;
21569;SDS011;57598;50.888;4.746;2024-01-30T01:01:50;66.10;;;60.45;;
21569;SDS011;57598;50.888;4.746;2024-01-30T01:04:17;66.50;;;60.80;;
21569;SDS011;57598;50.888;4.746;2024-01-30T01:06:47;64.68;;;59.08;;
21569;SDS011;57598;50.888;4.746;2024-01-30T01:09:15;67.75;;;61.85;;
21569;SDS011;57598;50.888;4.746;2024-01-30T01:11:42;64.80;;;59.20;;
21569;SDS011;57598;50.888;4.746;2024-01-30T01:14:10;65.57;;;59.83;;
21569;SDS011;57598;50.888;4.746;2024-01-30T01:16:37;64.53;;;59.03;;
21569;SDS011;57598;50.888;4.746;2024-01-30T01:19:04;64.78;;;59.17;;
21569;SDS011;57598;50.888;4.746;2024-01-30T01:21:32;64.90;;;59.30;;
21569;SDS011;57598;50.888;4.746;2024-01-30T01:24:00;64.47;;;58.88;;
21569;SDS011;57598;50.888;4.746;2024-01-30T01:26:28;62.33;;;56.92;;
21569;SDS011;57598;50.888;4.746;2024-01-30T01:28:55;62.45;;;56.97;;
21569;SDS011;57598;50.888;4.746;2024-01-30T01:31:22;64.32;;;58.42;;
21569;SDS011;57598;50.888;4.746;2024-01-30T01:33:50;64.20;;;58.28;;
21569;SDS011;57598;50.888;4.746;2024-01-30T01:36:17;65.28;;;59.47;;
21569;SDS011;57598;50.888;4.746;2024-01-30T01:38:45;64.68;;;58.78;;
21569;SDS011;57598;50.888;4.746;2024-01-30T01:41:14;63.58;;;57.97;;
21569;SDS011;57598;50.888;4.746;2024-01-30T01:43:41;63.42;;;57.83;;
21569;SDS011;57598;50.888;4.746;2024-01-30T01:46:08;62.50;;;56.92;;
21569;SDS011;57598;50.888;4.746;2024-01-30T01:48:36;65.03;;;59.22;;
21569;SDS011;57598;50.888;4.746;2024-01-30T01:51:05;65.60;;;59.80;;
21569;SDS011;57598;50.888;4.746;2024-01-30T01:53:32;65.72;;;59.72;;
21569;SDS011;57598;50.888;4.746;2024-01-30T01:56:00;64.00;;;58.15;;
21569;SDS011;57598;50.888;4.746;2024-01-30T01:58:29;64.30;;;57.88;;
21569;SDS011;57598;50.888;4.746;2024-01-30T02:00:57;62.65;;;57.10;;
21569;SDS011;57598;50.888;4.746;2024-01-30T02:03:25;65.50;;;59.67;;
21569;SDS011;57598;50.888;4.746;2024-01-30T02:05:52;63.75;;;58.03;;
21569;SDS011;57598;50.888;4.746;2024-01-30T02:08:19;65.97;;;60.08;;
21569;SDS011;57598;50.888;4.746;2024-01-30T02:10:47;68.57;;;62.28;;
21569;SDS011;57598;50.888;4.746;2024-01-30T02:13:14;64.50;;;58.70;;
21569;SDS011;57598;50.888;4.746;2024-01-30T02:15:43;65.78;;;59.13;;
21569;SDS011;57598;50.888;4.746;2024-01-30T02:18:10;65.70;;;59.83;;
21569;SDS011;57598;50.888;4.746;2024-01-30T02:20:37;65.30;;;59.45;;
21569;SDS011;57598;50.888;4.746;2024-01-30T02:23:06;68.38;;;61.67;;
21569;SDS011;57598;50.888;4.746;2024-01-30T02:25:35;66.93;;;60.83;;
21569;SDS011;57598;50.888;4.746;2024-01-30T02:28:03;65.72;;;59.63;;
21569;SDS011;57598;50.888;4.746;2024-01-30T02:30:30;66.10;;;60.00;;
21569;SDS011;57598;50.888;4.746;2024-01-30T02:32:57;64.95;;;58.95;;
21569;SDS011;57598;50.888;4.746;2024-01-30T02:35:25;65.82;;;59.83;;
21569;SDS011;57598;50.888;4.746;2024-01-30T02:37:52;66.72;;;60.45;;
21569;SDS011;57598;50.888;4.746;2024-01-30T02:40:21;63.78;;;57.88;;
21569;SDS011;57598;50.888;4.746;2024-01-30T02:42:48;65.90;;;59.90;;
21569;SDS011;57598;50.888;4.746;2024-01-30T02:45:15;67.72;;;61.53;;
21569;SDS011;57598;50.888;4.746;2024-01-30T02:47:42;68.80;;;62.53;;
21569;SDS011;57598;50.888;4.746;2024-01-30T02:50:10;67.05;;;61.05;;
21569;SDS011;57598;50.888;4.746;2024-01-30T02:52:37;67.50;;;61.10;;
21569;SDS011;57598;50.888;4.746;2024-01-30T02:55:05;68.70;;;62.30;;
21569;SDS011;57598;50.888;4.746;2024-01-30T02:57:33;68.55;;;62.45;;
21569;SDS011;57598;50.888;4.746;2024-01-30T03:00:01;67.13;;;61.03;;
21569;SDS011;57598;50.888;4.746;2024-01-30T03:02:29;65.95;;;60.05;;
21569;SDS011;57598;50.888;4.746;2024-01-30T03:04:56;69.07;;;62.88;;
21569;SDS011;57598;50.888;4.746;2024-01-30T03:07:23;70.78;;;64.35;;
21569;SDS011;57598;50.888;4.746;2024-01-30T03:09:50;68.50;;;62.40;;
21569;SDS011;57598;50.888;4.746;2024-01-30T03:12:20;64.90;;;58.90;;
21569;SDS011;57598;50.888;4.746;2024-01-30T03:14:49;67.47;;;61.30;;
21569;SDS011;57598;50.888;4.746;2024-01-30T03:17:16;66.70;;;60.70;;
21569;SDS011;57598;50.888;4.746;2024-01-30T03:19:44;70.20;;;63.58;;
21569;SDS011;57598;50.888;4.746;2024-01-30T03:22:11;68.05;;;61.95;;
21569;SDS011;57598;50.888;4.746;2024-01-30T03:24:38;66.32;;;59.97;;
21569;SDS011;57598;50.888;4.746;2024-01-30T03:27:05;64.60;;;58.80;;
21569;SDS011;57598;50.888;4.746;2024-01-30T03:29:33;66.35;;;60.28;;
21569;SDS011;57598;50.888;4.746;2024-01-30T03:32:01;68.20;;;62.10;;
21569;SDS011;57598;50.888;4.746;2024-01-30T03:34:29;66.90;;;60.83;;
21569;SDS011;57598;50.888;4.746;2024-01-30T03:36:56;66.75;;;60.83;;
21569;SDS011;57598;50.888;4.746;2024-01-30T03:39:23;66.20;;;60.10;;
21569;SDS011;57598;50.888;4.746;2024-01-30T03:41:51;66.32;;;60.22;;
21569;SDS011;57598;50.888;4.746;2024-01-30T03:44:18;64.22;;;58.33;;
21569;SDS011;57598;50.888;4.746;2024-01-30T03:46:45;64.85;;;58.85;;
21569;SDS011;57598;50.888;4.746;2024-01-30T03:49:14;66.70;;;60.70;;
21569;SDS011;57598;50.888;4.746;2024-01-30T03:51:41;68.05;;;61.90;;
21569;SDS011;57598;50.888;4.746;2024-01-30T03:54:09;65.95;;;60.05;;
21569;SDS011;57598;50.888;4.746;2024-01-30T03:56:37;66.47;;;60.47;;
21569;SDS011;57598;50.888;4.746;2024-01-30T03:59:04;65.30;;;59.15;;
21569;SDS011;57598;50.888;4.746;2024-01-30T04:01:31;65.35;;;59.03;;
21569;SDS011;57598;50.888;4.746;2024-01-30T04:03:59;65.68;;;59.67;;
21569;SDS011;57598;50.888;4.746;2024-01-30T04:06:27;63.47;;;57.67;;
21569;SDS011;57598;50.888;4.746;2024-01-30T04:08:55;65.53;;;59.17;;
21569;SDS011;57598;50.888;4.746;2024-01-30T04:11:22;64.57;;;58.67;;
21569;SDS011;57598;50.888;4.746;2024-01-30T04:13:50;63.17;;;57.40;;
21569;SDS011;57598;50.888;4.746;2024-01-30T04:16:20;65.28;;;59.47;;
21569;SDS011;57598;50.888;4.746;2024-01-30T04:18:48;65.17;;;59.30;;
21569;SDS011;57598;50.888;4.746;2024-01-30T04:21:15;64.38;;;58.67;;
21569;SDS011;57598;50.888;4.746;2024-01-30T04:23:44;64.03;;;58.13;;
21569;SDS011;57598;50.888;4.746;2024-01-30T04:26:11;64.72;;;58.83;;
21569;SDS011;57598;50.888;4.746;2024-01-30T04:28:38;65.65;;;59.20;;
21569;SDS011;57598;50.888;4.746;2024-01-30T04:31:05;64.13;;;58.13;;
21569;SDS011;57598;50.888;4.746;2024-01-30T04:33:33;61.50;;;55.90;;
21569;SDS011;57598;50.888;4.746;2024-01-30T04:36:00;61.22;;;55.55;;
21569;SDS011;57598;50.888;4.746;2024-01-30T04:38:28;63.28;;;57.45;;
21569;SDS011;57598;50.888;4.746;2024-01-30T04:40:56;62.75;;;57.00;;
21569;SDS011;57598;50.888;4.746;2024-01-30T04:43:24;62.92;;;57.22;;
21569;SDS011;57598;50.888;4.746;2024-01-30T04:45:52;62.05;;;56.45;;
21569;SDS011;57598;50.888;4.746;2024-01-30T04:48:19;62.97;;;56.92;;
21569;SDS011;57598;50.888;4.746;2024-01-30T04:50:46;60.75;;;55.25;;
21569;SDS011;57598;50.888;4.746;2024-01-30T04:53:14;63.55;;;57.75;;
21569;SDS011;57598;50.888;4.746;2024-01-30T04:55:41;62.55;;;56.95;;
21569;SDS011;57598;50.888;4.746;2024-01-30T04:58:10;61.03;;;55.53;;
21569;SDS011;57598;50.888;4.746;2024-01-30T05:00:37;64.05;;;58.08;;
21569;SDS011;57598;50.888;4.746;2024-01-30T05:03:04;62.85;;;57.22;;
21569;SDS011;57598;50.888;4.746;2024-01-30T05:05:31;65.13;;;59.08;;
21569;SDS011;57598;50.888;4.746;2024-01-30T05:07:59;64.30;;;58.58;;
21569;SDS011;57598;50.888;4.746;2024-01-30T05:10:26;63.97;;;58.47;;
21569;SDS011;57598;50.888;4.746;2024-01-30T05:12:54;61.55;;;56.00;;
21569;SDS011;57598;50.888;4.746;2024-01-30T05:15:23;67.70;;;61.80;;
21569;SDS011;57598;50.888;4.746;2024-01-30T05:17:50;66.55;;;60.75;;
21569;SDS011;57598;50.888;4.746;2024-01-30T05:20:17;65.75;;;60.15;;
21569;SDS011;57598;50.888;4.746;2024-01-30T05:22:45;68.40;;;62.35;;
21569;SDS011;57598;50.888;4.746;2024-01-30T05:25:12;66.18;;;59.90;;
21569;SDS011;57598;50.888;4.746;2024-01-30T05:27:40;65.15;;;59.33;;
21569;SDS011;57598;50.888;4.746;2024-01-30T05:30:07;67.22;;;61.05;;
21569;SDS011;57598;50.888;4.746;2024-01-30T05:32:36;64.80;;;59.20;;
21569;SDS011;57598;50.888;4.746;2024-01-30T05:35:03;64.93;;;59.25;;
21569;SDS011;57598;50.888;4.746;2024-01-30T05:37:32;63.72;;;58.13;;
21569;SDS011;57598;50.888;4.746;2024-01-30T05:40:00;65.30;;;59.75;;
21569;SDS011;57598;50.888;4.746;2024-01-30T05:42:28;66.95;;;61.35;;
21569;SDS011;57598;50.888;4.746;2024-01-30T05:44:55;63.20;;;57.70;;
21569;SDS011;57598;50.888;4.746;2024-01-30T05:47:22;65.82;;;60.22;;
21569;SDS011;57598;50.888;4.746;2024-01-30T05:49:51;66.03;;;60.53;;
21569;SDS011;57598;50.888;4.746;2024-01-30T05:52:18;71.82;;;65.63;;
21569;SDS011;57598;50.888;4.746;2024-01-30T05:54:45;63.60;;;58.03;;
21569;SDS011;57598;50.888;4.746;2024-01-30T05:57:13;61.42;;;55.92;;
21569;SDS011;57598;50.888;4.746;2024-01-30T05:59:40;63.30;;;57.78;;
21569;SDS011;57598;50.888;4.746;2024-01-30T06:02:09;65.75;;;60.15;;
21569;SDS011;57598;50.888;4.746;2024-01-30T06:04:37;64.63;;;59.17;;
21569;SDS011;57598;50.888;4.746;2024-01-30T06:07:05;67.35;;;61.75;;
21569;SDS011;57598;50.888;4.746;2024-01-30T06:09:33;61.70;;;56.13;;
21569;SDS011;57598;50.888;4.746;2024-01-30T06:12:00;61.95;;;56.53;;
21569;SDS011;57598;50.888;4.746;2024-01-30T06:14:27;63.42;;;57.92;;
21569;SDS011;57598;50.888;4.746;2024-01-30T06:16:54;62.58;;;57.00;;
21569;SDS011;57598;50.888;4.746;2024-01-30T06:19:22;63.17;;;57.38;;
21569;SDS011;57598;50.888;4.746;2024-01-30T06:21:49;64.55;;;59.05;;
21569;SDS011;57598;50.888;4.746;2024-01-30T06:24:18;66.50;;;61.10;;
21569;SDS011;57598;50.888;4.746;2024-01-30T06:26:45;64.85;;;59.45;;
21569;SDS011;57598;50.888;4.746;2024-01-30T06:29:12;64.70;;;59.30;;
21569;SDS011;57598;50.888;4.746;2024-01-30T06:31:40;66.32;;;60.92;;
21569;SDS011;57598;50.888;4.746;2024-01-30T06:34:07;64.22;;;59.03;;
21569;SDS011;57598;50.888;4.746;2024-01-30T06:36:35;65.05;;;59.55;;
21569;SDS011;57598;50.888;4.746;2024-01-30T06:39:02;65.60;;;60.20;;
21569;SDS011;57598;50.888;4.746;2024-01-30T06:41:31;62.55;;;57.05;;
21569;SDS011;57598;50.888;4.746;2024-01-30T06:43:58;66.45;;;61.00;;
21569;SDS011;57598;50.888;4.746;2024-01-30T06:46:25;65.78;;;59.95;;
21569;SDS011;57598;50.888;4.746;2024-01-30T06:48:53;63.65;;;58.25;;
21569;SDS011;57598;50.888;4.746;2024-01-30T06:51:20;65.35;;;59.47;;
21569;SDS011;57598;50.888;4.746;2024-01-30T06:53:47;65.25;;;59.83;;
21569;SDS011;57598;50.888;4.746;2024-01-30T06:56:15;61.88;;;56.78;;
21569;SDS011;57598;50.888;4.746;2024-01-30T06:58:47;66.03;;;60.17;;
21569;SDS011;57598;50.888;4.746;2024-01-30T07:01:14;63.92;;;58.63;;
21569;SDS011;57598;50.888;4.746;2024-01-30T07:03:42;68.28;;;62.05;;
21569;SDS011;57598;50.888;4.746;2024-01-30T07:06:09;62.67;;;57.50;;
21569;SDS011;57598;50.888;4.746;2024-01-30T07:08:37;67.03;;;61.78;;
21569;SDS011;57598;50.888;4.746;2024-01-30T07:11:04;67.88;;;62.47;;
21569;SDS011;57598;50.888;4.746;2024-01-30T07:13:32;65.35;;;59.95;;
21569;SDS011;57598;50.888;4.746;2024-01-30T07:16:01;67.10;;;61.60;;
21569;SDS011;57598;50.888;4.746;2024-01-30T07:18:28;68.80;;;63.40;;
21569;SDS011;57598;50.888;4.746;2024-01-30T07:20:55;64.43;;;59.22;;
21569;SDS011;57598;50.888;4.746;2024-01-30T07:23:23;68.95;;;63.45;;
21569;SDS011;57598;50.888;4.746;2024-01-30T07:25:50;65.70;;;59.95;;
21569;SDS011;57598;50.888;4.746;2024-01-30T07:28:17;70.57;;;65.07;;
21569;SDS011;57598;50.888;4.746;2024-01-30T07:30:44;66.85;;;61.03;;
21569;SDS011;57598;50.888;4.746;2024-01-30T07:33:14;64.68;;;59.28;;
21569;SDS011;57598;50.888;4.746;2024-01-30T07:35:41;71.50;;;65.50;;
21569;SDS011;57598;50.888;4.746;2024-01-30T07:38:09;69.55;;;63.70;;
21569;SDS011;57598;50.888;4.746;2024-01-30T07:40:36;65.30;;;59.80;;
21569;SDS011;57598;50.888;4.746;2024-01-30T07:43:03;71.68;;;64.97;;
21569;SDS011;57598;50.888;4.746;2024-01-30T07:45:31;70.93;;;65.18;;
21569;SDS011;57598;50.888;4.746;2024-01-30T07:47:58;72.72;;;66.82;;
21569;SDS011;57598;50.888;4.746;2024-01-30T07:50:27;70.70;;;65.07;;
21569;SDS011;57598;50.888;4.746;2024-01-30T07:52:55;73.63;;;67.80;;
21569;SDS011;57598;50.888;4.746;2024-01-30T07:55:22;72.65;;;65.90;;
21569;SDS011;57598;50.888;4.746;2024-01-30T07:57:52;73.43;;;67.72;;
21569;SDS011;57598;50.888;4.746;2024-01-30T08:00:20;69.03;;;63.63;;
21569;SDS011;57598;50.888;4.746;2024-01-30T08:02:47;73.10;;;67.30;;
21569;SDS011;57598;50.888;4.746;2024-01-30T08:05:15;72.63;;;67.00;;
21569;SDS011;57598;50.888;4.746;2024-01-30T08:07:43;70.30;;;64.75;;
21569;SDS011;57598;50.888;4.746;2024-01-30T08:10:11;69.85;;;64.45;;
21569;SDS011;57598;50.888;4.746;2024-01-30T08:12:38;65.63;;;60.33;;
21569;SDS011;57598;50.888;4.746;2024-01-30T08:15:06;71.57;;;65.88;;
21569;SDS011;57598;50.888;4.746;2024-01-30T08:17:33;68.20;;;62.58;;
21569;SDS011;57598;50.888;4.746;2024-01-30T08:20:01;72.03;;;66.38;;
21569;SDS011;57598;50.888;4.746;2024-01-30T08:22:29;67.55;;;62.05;;
21569;SDS011;57598;50.888;4.746;2024-01-30T08:24:58;66.43;;;61.03;;
21569;SDS011;57598;50.888;4.746;2024-01-30T08:27:25;67.07;;;61.58;;
21569;SDS011;57598;50.888;4.746;2024-01-30T08:29:53;67.80;;;62.42;;
21569;SDS011;57598;50.888;4.746;2024-01-30T08:32:20;68.30;;;62.90;;
21569;SDS011;57598;50.888;4.746;2024-01-30T08:34:48;65.78;;;60.58;;
21569;SDS011;57598;50.888;4.746;2024-01-30T08:37:15;70.10;;;64.60;;
21569;SDS011;57598;50.888;4.746;2024-01-30T08:39:42;70.15;;;64.45;;
21569;SDS011;57598;50.888;4.746;2024-01-30T08:42:11;71.70;;;65.60;;
21569;SDS011;57598;50.888;4.746;2024-01-30T08:44:38;69.78;;;63.72;;
21569;SDS011;57598;50.888;4.746;2024-01-30T08:47:06;65.30;;;59.95;;
21569;SDS011;57598;50.888;4.746;2024-01-30T08:49:33;70.22;;;64.60;;
21569;SDS011;57598;50.888;4.746;2024-01-30T08:52:00;72.32;;;66.65;;
21569;SDS011;57598;50.888;4.746;2024-01-30T08:54:28;70.80;;;65.20;;
21569;SDS011;57598;50.888;4.746;2024-01-30T08:56:55;69.78;;;64.38;;
21569;SDS011;57598;50.888;4.746;2024-01-30T08:59:24;69.95;;;64.35;;
21569;SDS011;57598;50.888;4.746;2024-01-30T09:01:52;71.95;;;66.13;;
21569;SDS011;57598;50.888;4.746;2024-01-30T09:04:20;69.45;;;63.75;;
21569;SDS011;57598;50.888;4.746;2024-01-30T09:06:47;70.82;;;65.32;;
21569;SDS011;57598;50.888;4.746;2024-01-30T09:09:15;71.43;;;65.63;;
21569;SDS011;57598;50.888;4.746;2024-01-30T09:11:42;69.30;;;63.83;;
21569;SDS011;57598;50.888;4.746;2024-01-30T09:14:10;67.63;;;62.22;;
21569;SDS011;57598;50.888;4.746;2024-01-30T09:16:38;71.57;;;65.78;;
21569;SDS011;57598;50.888;4.746;2024-01-30T09:19:06;70.38;;;64.47;;
21569;SDS011;57598;50.888;4.746;2024-01-30T09:21:33;67.28;;;61.75;;
21569;SDS011;57598;50.888;4.746;2024-01-30T09:24:03;67.70;;;62.30;;
21569;SDS011;57598;50.888;4.746;2024-01-30T09:26:31;67.90;;;62.20;;
21569;SDS011;57598;50.888;4.746;2024-01-30T09:28:58;67.93;;;62.50;;
21569;SDS011;57598;50.888;4.746;2024-01-30T09:31:25;68.85;;;63.30;;
21569;SDS011;57598;50.888;4.746;2024-01-30T09:33:55;65.82;;;60.42;;
21569;SDS011;57598;50.888;4.746;2024-01-30T09:36:22;67.57;;;62.08;;
21569;SDS011;57598;50.888;4.746;2024-01-30T09:38:50;68.13;;;62.53;;
21569;SDS011;57598;50.888;4.746;2024-01-30T09:41:17;66.63;;;60.92;;
21569;SDS011;57598;50.888;4.746;2024-01-30T09:43:47;67.20;;;61.42;;
21569;SDS011;57598;50.888;4.746;2024-01-30T09:46:14;71.03;;;65.32;;
21569;SDS011;57598;50.888;4.746;2024-01-30T09:48:43;68.00;;;62.55;;
21569;SDS011;57598;50.888;4.746;2024-01-30T09:51:15;69.53;;;63.78;;
21569;SDS011;57598;50.888;4.746;2024-01-30T09:53:42;68.68;;;63.08;;
21569;SDS011;57598;50.888;4.746;2024-01-30T09:56:10;72.32;;;66.63;;
21569;SDS011;57598;50.888;4.746;2024-01-30T09:58:37;69.38;;;63.80;;
21569;SDS011;57598;50.888;4.746;2024-01-30T10:01:05;68.18;;;60.88;;
21569;SDS011;57598;50.888;4.746;2024-01-30T10:03:32;69.05;;;62.65;;
21569;SDS011;57598;50.888;4.746;2024-01-30T10:05:59;69.38;;;63.72;;
21569;SDS011;57598;50.888;4.746;2024-01-30T10:08:29;72.80;;;66.60;;
21569;SDS011;57598;50.888;4.746;2024-01-30T10:10:56;70.93;;;65.32;;
21569;SDS011;57598;50.888;4.746;2024-01-30T10:13:24;72.00;;;66.40;;
21569;SDS011;57598;50.888;4.746;2024-01-30T10:15:52;71.82;;;66.22;;
21569;SDS011;57598;50.888;4.746;2024-01-30T10:18:20;73.45;;;67.13;;
21569;SDS011;57598;50.888;4.746;2024-01-30T10:20:47;70.25;;;64.75;;
21569;SDS011;57598;50.888;4.746;2024-01-30T10:23:14;69.97;;;64.55;;
21569;SDS011;57598;50.888;4.746;2024-01-30T10:25:43;75.50;;;69.32;;
21569;SDS011;57598;50.888;4.746;2024-01-30T10:28:11;71.88;;;66.18;;
21569;SDS011;57598;50.888;4.746;2024-01-30T10:30:38;76.85;;;70.72;;
21569;SDS011;57598;50.888;4.746;2024-01-30T10:33:05;75.57;;;69.80;;
21569;SDS011;57598;50.888;4.746;2024-01-30T10:35:32;74.75;;;68.85;;
21569;SDS011;57598;50.888;4.746;2024-01-30T10:38:00;77.55;;;71.07;;
21569;SDS011;57598;50.888;4.746;2024-01-30T10:40:28;77.93;;;71.78;;
21569;SDS011;57598;50.888;4.746;2024-01-30T10:42:57;77.55;;;71.25;;
21569;SDS011;57598;50.888;4.746;2024-01-30T10:45:26;79.13;;;72.35;;
21569;SDS011;57598;50.888;4.746;2024-01-30T10:47:56;80.60;;;74.10;;
21569;SDS011;57598;50.888;4.746;2024-01-30T10:50:25;80.97;;;74.32;;
21569;SDS011;57598;50.888;4.746;2024-01-30T10:52:53;81.72;;;75.72;;
21569;SDS011;57598;50.888;4.746;2024-01-30T10:55:22;79.47;;;72.15;;
21569;SDS011;57598;50.888;4.746;2024-01-30T10:57:49;84.53;;;77.50;;
21569;SDS011;57598;50.888;4.746;2024-01-30T11:00:19;81.03;;;74.55;;
21569;SDS011;57598;50.888;4.746;2024-01-30T11:02:48;86.80;;;79.77;;
21569;SDS011;57598;50.888;4.746;2024-01-30T11:05:23;82.32;;;75.45;;
21569;SDS011;57598;50.888;4.746;2024-01-30T11:07:51;81.40;;;74.80;;
21569;SDS011;57598;50.888;4.746;2024-01-30T11:10:19;77.15;;;70.88;;
21569;SDS011;57598;50.888;4.746;2024-01-30T11:12:46;77.13;;;70.90;;
21569;SDS011;57598;50.888;4.746;2024-01-30T11:15:15;72.32;;;66.20;;
21569;SDS011;57598;50.888;4.746;2024-01-30T11:17:45;71.43;;;65.72;;
21569;SDS011;57598;50.888;4.746;2024-01-30T11:20:14;65.97;;;60.67;;
21569;SDS011;57598;50.888;4.746;2024-01-30T11:22:42;67.07;;;61.78;;
21569;SDS011;57598;50.888;4.746;2024-01-30T11:25:13;67.60;;;62.40;;
21569;SDS011;57598;50.888;4.746;2024-01-30T11:27:41;65.00;;;59.88;;
21569;SDS011;57598;50.888;4.746;2024-01-30T11:30:09;66.43;;;61.17;;
21569;SDS011;57598;50.888;4.746;2024-01-30T11:32:36;65.93;;;60.42;;
21569;SDS011;57598;50.888;4.746;2024-01-30T11:35:05;64.97;;;59.67;;
21569;SDS011;57598;50.888;4.746;2024-01-30T11:37:36;70.30;;;64.28;;
21569;SDS011;57598;50.888;4.746;2024-01-30T11:40:04;63.00;;;57.60;;
21569;SDS011;57598;50.888;4.746;2024-01-30T11:42:31;61.97;;;57.05;;
21569;SDS011;57598;50.888;4.746;2024-01-30T11:44:59;63.28;;;58.20;;
21569;SDS011;57598;50.888;4.746;2024-01-30T11:47:28;61.78;;;56.80;;
21569;SDS011;57598;50.888;4.746;2024-01-30T11:49:55;59.88;;;55.17;;
21569;SDS011;57598;50.888;4.746;2024-01-30T11:52:24;60.83;;;55.63;;
21569;SDS011;57598;50.888;4.746;2024-01-30T11:54:51;59.50;;;54.80;;
21569;SDS011;57598;50.888;4.746;2024-01-30T11:57:19;61.40;;;56.38;;
21569;SDS011;57598;50.888;4.746;2024-01-30T11:59:46;56.38;;;52.05;;
21569;SDS011;57598;50.888;4.746;2024-01-30T12:02:15;56.20;;;51.45;;
21569;SDS011;57598;50.888;4.746;2024-01-30T12:04:43;56.20;;;51.92;;
21569;SDS011;57598;50.888;4.746;2024-01-30T12:07:10;54.13;;;50.03;;
21569;SDS011;57598;50.888;4.746;2024-01-30T12:09:42;56.75;;;52.45;;
21569;SDS011;57598;50.888;4.746;2024-01-30T12:12:09;54.80;;;50.58;;
21569;SDS011;57598;50.888;4.746;2024-01-30T12:14:37;54.08;;;50.08;;
21569;SDS011;57598;50.888;4.746;2024-01-30T12:17:05;54.60;;;50.28;;
21569;SDS011;57598;50.888;4.746;2024-01-30T12:19:33;52.50;;;48.40;;
21569;SDS011;57598;50.888;4.746;2024-01-30T12:22:01;54.42;;;50.40;;
21569;SDS011;57598;50.888;4.746;2024-01-30T12:24:29;54.53;;;50.28;;
21569;SDS011;57598;50.888;4.746;2024-01-30T12:26:58;52.92;;;49.13;;
21569;SDS011;57598;50.888;4.746;2024-01-30T12:29:25;52.38;;;48.10;;
21569;SDS011;57598;50.888;4.746;2024-01-30T12:31:53;49.33;;;45.72;;
21569;SDS011;57598;50.888;4.746;2024-01-30T12:34:22;49.90;;;46.40;;
21569;SDS011;57598;50.888;4.746;2024-01-30T12:36:51;48.80;;;45.22;;
21569;SDS011;57598;50.888;4.746;2024-01-30T12:39:18;47.55;;;44.22;;
21569;SDS011;57598;50.888;4.746;2024-01-30T12:41:47;47.83;;;44.72;;
21569;SDS011;57598;50.888;4.746;2024-01-30T12:44:15;45.38;;;42.20;;
21569;SDS011;57598;50.888;4.746;2024-01-30T12:46:42;38.70;;;36.40;;
21569;SDS011;57598;50.888;4.746;2024-01-30T12:49:10;34.90;;;32.90;;
21569;SDS011;57598;50.888;4.746;2024-01-30T12:51:37;32.90;;;30.90;;
21569;SDS011;57598;50.888;4.746;2024-01-30T12:54:05;33.33;;;31.23;;
21569;SDS011;57598;50.888;4.746;2024-01-30T12:56:32;30.98;;;28.90;;
21569;SDS011;57598;50.888;4.746;2024-01-30T12:59:00;31.30;;;28.98;;
21569;SDS011;57598;50.888;4.746;2024-01-30T13:01:28;29.63;;;27.83;;
21569;SDS011;57598;50.888;4.746;2024-01-30T13:03:56;28.65;;;26.85;;
21569;SDS011;57598;50.888;4.746;2024-01-30T13:06:23;28.15;;;26.20;;
21569;SDS011;57598;50.888;4.746;2024-01-30T13:08:51;27.83;;;25.73;;
21569;SDS011;57598;50.888;4.746;2024-01-30T13:11:18;25.58;;;24.08;;
21569;SDS011;57598;50.888;4.746;2024-01-30T13:13:45;26.67;;;24.23;;
21569;SDS011;57598;50.888;4.746;2024-01-30T13:16:13;23.90;;;22.60;;
21569;SDS011;57598;50.888;4.746;2024-01-30T13:18:41;23.52;;;22.13;;
21569;SDS011;57598;50.888;4.746;2024-01-30T13:21:08;24.17;;;22.13;;
21569;SDS011;57598;50.888;4.746;2024-01-30T13:23:36;24.48;;;22.40;;
21569;SDS011;57598;50.888;4.746;2024-01-30T13:26:03;22.80;;;21.50;;
21569;SDS011;57598;50.888;4.746;2024-01-30T13:28:31;23.58;;;22.13;;
21569;SDS011;57598;50.888;4.746;2024-01-30T13:30:59;22.40;;;21.00;;
21569;SDS011;57598;50.888;4.746;2024-01-30T13:33:26;21.02;;;19.83;;
21569;SDS011;57598;50.888;4.746;2024-01-30T13:35:53;21.80;;;20.35;;
21569;SDS011;57598;50.888;4.746;2024-01-30T13:38:21;22.27;;;20.77;;
21569;SDS011;57598;50.888;4.746;2024-01-30T13:40:48;21.73;;;20.48;;
21569;SDS011;57598;50.888;4.746;2024-01-30T13:43:16;21.73;;;20.23;;
21569;SDS011;57598;50.888;4.746;2024-01-30T13:45:43;21.20;;;20.00;;
21569;SDS011;57598;50.888;4.746;2024-01-30T13:48:11;24.10;;;21.90;;
21569;SDS011;57598;50.888;4.746;2024-01-30T13:50:38;20.80;;;19.60;;
21569;SDS011;57598;50.888;4.746;2024-01-30T13:53:07;20.83;;;19.30;;
21569;SDS011;57598;50.888;4.746;2024-01-30T13:55:34;20.30;;;19.08;;
21569;SDS011;57598;50.888;4.746;2024-01-30T13:58:01;18.88;;;17.77;;
21569;SDS011;57598;50.888;4.746;2024-01-30T14:00:29;19.13;;;18.02;;
21569;SDS011;57598;50.888;4.746;2024-01-30T14:02:56;21.70;;;20.05;;
21569;SDS011;57598;50.888;4.746;2024-01-30T14:05:24;19.60;;;18.30;;
21569;SDS011;57598;50.888;4.746;2024-01-30T14:07:52;20.48;;;18.92;;
21569;SDS011;57598;50.888;4.746;2024-01-30T14:10:21;20.67;;;19.17;;
21569;SDS011;57598;50.888;4.746;2024-01-30T14:12:48;20.85;;;19.55;;
21569;SDS011;57598;50.888;4.746;2024-01-30T14:15:15;19.98;;;18.38;;
21569;SDS011;57598;50.888;4.746;2024-01-30T14:17:43;21.25;;;19.85;;
21569;SDS011;57598;50.888;4.746;2024-01-30T14:20:10;20.40;;;19.00;;
21569;SDS011;57598;50.888;4.746;2024-01-30T14:22:38;19.98;;;18.65;;